Time;durP1;ratioP1;P1;durP2;ratioP2;P2;SDS_P1;SDS_P2;PMS_P1;PMS_P2;Temp;Humidity;BMP_temperature;BMP_pressure;BME280_temperature;BME280_humidity;BME280_pressure;Samples;Min_cycle;Max_cycle;Signal;HPM_P1;HPM_P2
2023/08/22 00:01:04;;;;;;;20.23;12.63;;;21.40;32.60;;;;;;5028598;28;46453;-69
2023/08/22 00:03:30;;;;;;;17.40;11.87;;;21.40;33.30;;;;;;5027371;28;46810;-68
2023/08/22 00:05:56;;;;;;;22.90;12.20;;;21.40;32.60;;;;;;5028335;28;46442;-69
2023/08/22 00:08:21;;;;;;;23.03;11.90;;;21.40;32.90;;;;;;5027583;28;46483;-68
2023/08/22 00:10:47;;;;;;;22.13;12.53;;;21.40;32.60;;;;;;5022725;28;46530;-68
2023/08/22 00:13:13;;;;;;;19.43;10.63;;;21.40;34.90;;;;;;5025213;28;45927;-68
2023/08/22 00:15:39;;;;;;;19.83;9.97;;;21.40;33.00;;;;;;5031160;28;47056;-68
2023/08/22 00:18:05;;;;;;;15.67;10.37;;;21.40;33.80;;;;;;5030554;28;46500;-68
2023/08/22 00:20:31;;;;;;;17.00;10.80;;;21.20;34.00;;;;;;5028604;28;45888;-68
2023/08/22 00:22:56;;;;;;;19.43;11.40;;;21.00;34.00;;;;;;5031262;28;46632;-68
2023/08/22 00:25:22;;;;;;;21.50;12.03;;;21.00;35.00;;;;;;5030899;28;46439;-69
2023/08/22 00:27:48;;;;;;;16.17;10.67;;;21.00;33.90;;;;;;5029841;28;46428;-68
2023/08/22 00:30:13;;;;;;;19.20;11.30;;;20.90;34.90;;;;;;5029834;28;46871;-67
2023/08/22 00:32:39;;;;;;;15.87;10.77;;;20.80;35.10;;;;;;5030724;28;46480;-68
2023/08/22 00:35:05;;;;;;;21.23;11.70;;;20.80;35.90;;;;;;5029816;28;46673;-68
2023/08/22 00:37:30;;;;;;;18.57;11.80;;;20.70;35.30;;;;;;5029124;28;46436;-67
2023/08/22 00:39:56;;;;;;;19.63;11.30;;;20.70;36.10;;;;;;5031227;28;46464;-68
2023/08/22 00:42:21;;;;;;;24.27;12.90;;;20.60;35.40;;;;;;5028719;28;46427;-69
2023/08/22 00:44:47;;;;;;;19.60;11.80;;;20.60;35.50;;;;;;5028876;28;47035;-68
2023/08/22 00:47:13;;;;;;;20.83;11.43;;;20.60;35.50;;;;;;5028993;28;46508;-69
2023/08/22 00:49:40;;;;;;;18.87;10.90;;;20.60;35.10;;;;;;5031742;28;45800;-68
2023/08/22 00:52:07;;;;;;;23.10;11.43;;;20.60;35.30;;;;;;5028475;28;46636;-68
2023/08/22 00:54:33;;;;;;;20.43;12.37;;;;;;;;;;5030227;28;46796;-68
2023/08/22 00:56:59;;;;;;;18.27;11.63;;;;;;;;;;5029221;28;46521;-67
2023/08/22 00:59:26;;;;;;;16.27;11.47;;;20.60;35.50;;;;;;5030738;28;46419;-67
2023/08/22 01:01:51;;;;;;;15.73;11.07;;;20.80;36.60;;;;;;5027826;28;46526;-69
2023/08/22 01:04:17;;;;;;;17.07;12.10;;;20.60;36.40;;;;;;5032466;28;46490;-67
2023/08/22 01:06:52;;;;;;;17.73;11.57;;;20.60;35.60;;;;;;5029879;28;46732;-68
2023/08/22 01:09:23;;;;;;;27.00;13.23;;;20.60;36.40;;;;;;5029986;28;45885;-69
2023/08/22 01:11:52;;;;;;;17.67;12.30;;;20.60;35.50;;;;;;5029646;28;46710;-68
2023/08/22 01:14:22;;;;;;;21.67;11.10;;;20.60;35.20;;;;;;5027487;28;47133;-68
2023/08/22 01:16:48;;;;;;;20.23;12.43;;;20.60;35.50;;;;;;5030311;28;46437;-68
2023/08/22 01:19:18;;;;;;;24.90;13.60;;;20.50;35.30;;;;;;5029647;28;46549;-67
2023/08/22 01:21:51;;;;;;;20.13;11.60;;;20.50;35.40;;;;;;5027910;28;46325;-68
2023/08/22 01:24:16;;;;;;;17.27;11.90;;;20.40;36.00;;;;;;5030293;28;47101;-69
2023/08/22 01:26:43;;;;;;;17.87;12.40;;;20.40;35.90;;;;;;5026269;28;46589;-68
2023/08/22 01:29:11;;;;;;;21.47;12.63;;;20.30;36.30;;;;;;5030936;28;46436;-68
2023/08/22 01:31:58;;;;;;;19.67;12.57;;;20.30;37.40;;;;;;5028440;28;46606;-67
2023/08/22 01:34:29;;;;;;;19.10;13.77;;;20.20;37.80;;;;;;5029130;28;46527;-69
2023/08/22 01:36:57;;;;;;;22.27;13.33;;;20.10;37.30;;;;;;5028456;28;46412;-67
2023/08/22 01:39:26;;;;;;;26.73;13.33;;;20.10;38.20;;;;;;5030017;28;45787;-67
2023/08/22 01:41:53;;;;;;;20.37;12.40;;;20.10;37.50;;;;;;5029991;28;46638;-72
2023/08/22 01:44:19;;;;;;;19.60;12.10;;;;;;;;;;5030156;28;46502;-72
2023/08/22 01:46:45;;;;;;;18.63;13.13;;;;;;;;;;5030061;28;46395;-72
2023/08/22 01:49:11;;;;;;;21.83;12.60;;;;;;;;;;5028983;28;46419;-72
2023/08/22 01:51:37;;;;;;;21.53;13.40;;;20.10;37.10;;;;;;5028710;28;46413;-71
2023/08/22 01:54:03;;;;;;;18.33;13.37;;;20.20;38.30;;;;;;5028392;28;46549;-72
2023/08/22 01:56:30;;;;;;;18.83;12.50;;;20.10;37.50;;;;;;5028607;28;46458;-72
2023/08/22 01:58:55;;;;;;;20.20;12.40;;;20.10;38.00;;;;;;5028123;28;46441;-71
2023/08/22 02:01:23;;;;;;;15.07;10.93;;;20.10;38.70;;;;;;5026214;28;46458;-73
2023/08/22 02:03:48;;;;;;;16.73;11.20;;;20.00;38.30;;;;;;5028793;28;47951;-71
2023/08/22 02:06:14;;;;;;;15.47;11.77;;;20.00;38.40;;;;;;5030265;28;45827;-72
2023/08/22 02:08:40;;;;;;;17.00;11.80;;;20.00;39.20;;;;;;5028667;28;46509;-70
2023/08/22 02:11:06;;;;;;;16.40;11.70;;;20.00;39.30;;;;;;5027958;28;46408;-71
2023/08/22 02:13:32;;;;;;;21.87;11.90;;;19.90;39.40;;;;;;5029861;28;46433;-71
2023/08/22 02:15:58;;;;;;;16.33;12.50;;;19.90;38.50;;;;;;5029924;28;46649;-71
2023/08/22 02:18:24;;;;;;;21.57;13.40;;;19.90;39.60;;;;;;5028736;28;46431;-72
2023/08/22 02:20:54;;;;;;;20.73;11.70;;;19.90;39.50;;;;;;5026468;28;46598;-74
2023/08/22 02:23:20;;;;;;;20.67;12.17;;;19.90;39.90;;;;;;5028955;28;46939;-72
2023/08/22 02:25:49;;;;;;;18.23;13.33;;;19.80;39.10;;;;;;5028984;28;46557;-72
2023/08/22 02:28:14;;;;;;;20.67;13.73;;;19.80;40.00;;;;;;5027482;28;46451;-71
2023/08/22 02:30:40;;;;;;;16.80;13.40;;;19.70;40.20;;;;;;5028612;28;46482;-71
2023/08/22 02:33:06;;;;;;;26.23;13.93;;;19.70;40.40;;;;;;5028092;28;46760;-72
2023/08/22 02:35:31;;;;;;;21.93;13.73;;;19.80;39.70;;;;;;5027224;28;46630;-71
2023/08/22 02:37:57;;;;;;;18.57;13.27;;;19.70;40.50;;;;;;5036681;28;46498;-73
2023/08/22 02:40:23;;;;;;;20.93;14.83;;;19.70;40.60;;;;;;5030278;28;46522;-72
2023/08/22 02:42:48;;;;;;;27.70;14.10;;;19.70;40.70;;;;;;5027052;28;46657;-71
2023/08/22 02:45:14;;;;;;;25.00;13.03;;;19.70;40.60;;;;;;5027214;28;46506;-71
2023/08/22 02:47:40;;;;;;;21.13;13.90;;;19.70;39.80;;;;;;5024891;28;46431;-72
2023/08/22 02:50:07;;;;;;;16.90;13.13;;;19.70;40.70;;;;;;5026675;28;46385;-71
2023/08/22 02:52:32;;;;;;;21.60;13.37;;;19.70;40.60;;;;;;5028937;28;46555;-72
2023/08/22 02:54:58;;;;;;;21.80;14.03;;;19.70;40.50;;;;;;5026700;28;46542;-73
2023/08/22 02:57:24;;;;;;;19.33;13.60;;;19.70;39.80;;;;;;5029969;28;46501;-71
2023/08/22 02:59:49;;;;;;;23.53;14.77;;;19.70;40.60;;;;;;5027431;28;46495;-72
2023/08/22 03:02:15;;;;;;;19.73;12.63;;;19.70;40.60;;;;;;5032069;28;46409;-72
2023/08/22 03:04:40;;;;;;;17.70;12.93;;;19.70;40.60;;;;;;5029481;28;46176;-70
2023/08/22 03:07:09;;;;;;;21.40;13.33;;;19.70;39.60;;;;;;5029175;28;46380;-71
2023/08/22 03:09:34;;;;;;;17.70;13.00;;;19.70;40.60;;;;;;5028567;28;45784;-72
2023/08/22 03:12:00;;;;;;;22.20;13.30;;;19.70;40.40;;;;;;5028136;28;47102;-72
2023/08/22 03:14:26;;;;;;;20.20;13.20;;;19.70;40.50;;;;;;5028602;28;46498;-72
2023/08/22 03:16:52;;;;;;;17.77;12.50;;;19.60;39.70;;;;;;5027177;28;46473;-72
2023/08/22 03:19:17;;;;;;;23.00;13.80;;;19.60;40.70;;;;;;5029449;28;46166;-71
2023/08/22 03:21:43;;;;;;;16.63;12.70;;;19.60;40.80;;;;;;5030602;28;46394;-70
2023/08/22 03:24:08;;;;;;;21.20;12.13;;;19.50;40.90;;;;;;5025787;28;46659;-73
2023/08/22 03:26:34;;;;;;;22.50;13.40;;;19.50;40.00;;;;;;5027414;28;46490;-72
2023/08/22 03:29:00;;;;;;;19.67;12.70;;;19.50;41.00;;;;;;5029464;28;46446;-71
2023/08/22 03:31:28;;;;;;;18.33;13.13;;;19.50;40.90;;;;;;5027519;28;46377;-71
2023/08/22 03:33:54;;;;;;;24.37;13.20;;;19.60;40.80;;;;;;5027231;28;46698;-72
2023/08/22 03:36:20;;;;;;;20.73;12.77;;;19.60;39.80;;;;;;5027512;28;46382;-72
2023/08/22 03:38:50;;;;;;;19.93;13.67;;;19.60;40.80;;;;;;5026716;28;46844;-72
2023/08/22 03:41:17;;;;;;;20.73;12.70;;;19.50;41.00;;;;;;5030102;28;46455;-72
2023/08/22 03:43:42;;;;;;;20.33;13.27;;;19.40;41.30;;;;;;5027264;28;46702;-72
2023/08/22 03:46:08;;;;;;;19.63;12.37;;;19.30;40.90;;;;;;5029052;28;46559;-70
2023/08/22 03:48:33;;;;;;;17.07;12.50;;;19.20;41.90;;;;;;5025989;28;46742;-71
2023/08/22 03:50:59;;;;;;;19.70;13.63;;;19.20;42.40;;;;;;5026836;28;46429;-70
2023/08/22 03:53:25;;;;;;;18.20;13.60;;;19.10;43.10;;;;;;5029526;28;46363;-71
2023/08/22 03:55:51;;;;;;;22.63;13.37;;;19.10;41.90;;;;;;5028618;28;46580;-72
2023/08/22 03:58:16;;;;;;;19.23;12.67;;;19.10;42.90;;;;;;5026644;28;46450;-70
2023/08/22 04:00:42;;;;;;;20.57;14.07;;;19.00;42.80;;;;;;5026382;28;46357;-71
2023/08/22 04:03:11;;;;;;;24.37;14.53;;;19.00;43.00;;;;;;5014840;27;46475;-68
2023/08/22 04:05:40;;;;;;;17.50;13.70;;;19.00;42.20;;;;;;5056276;27;46416;-69
2023/08/22 04:08:05;;;;;;;22.10;12.50;;;19.00;43.20;;;;;;5044018;28;46484;-69
2023/08/22 04:10:31;;;;;;;25.70;14.43;;;19.10;43.20;;;;;;5047347;28;46545;-69
2023/08/22 04:12:57;;;;;;;19.80;13.53;;;19.10;43.00;;;;;;5044475;28;46463;-69
2023/08/22 04:15:22;;;;;;;23.50;14.20;;;19.10;43.10;;;;;;5044807;28;46456;-68
2023/08/22 04:17:48;;;;;;;30.43;14.27;;;19.10;42.00;;;;;;5046828;28;46419;-70
2023/08/22 04:20:13;;;;;;;20.30;13.10;;;19.10;43.00;;;;;;5045270;28;46682;-67
2023/08/22 04:22:41;;;;;;;21.77;13.80;;;19.10;43.10;;;;;;5045103;28;46491;-67
2023/08/22 04:25:08;;;;;;;21.40;13.40;;;19.10;43.20;;;;;;5051803;28;46777;-70
2023/08/22 04:27:33;;;;;;;21.70;13.20;;;19.10;42.40;;;;;;5045933;28;45992;-68
2023/08/22 04:30:03;;;;;;;19.00;12.63;;;19.10;43.50;;;;;;5044215;28;46549;-68
2023/08/22 04:32:28;;;;;;;19.40;13.90;;;19.10;43.60;;;;;;5045437;28;46507;-69
2023/08/22 04:34:54;;;;;;;18.10;13.43;;;19.10;42.70;;;;;;5046320;28;46940;-68
2023/08/22 04:37:21;;;;;;;35.80;13.93;;;19.20;42.70;;;;;;5042983;28;46602;-68
2023/08/22 04:39:47;;;;;;;18.33;14.20;;;19.20;43.30;;;;;;5047043;28;46773;-69
2023/08/22 04:42:12;;;;;;;19.53;11.80;;;19.30;43.20;;;;;;5044774;28;46187;-70
2023/08/22 04:44:38;;;;;;;19.13;13.57;;;19.40;43.10;;;;;;5046856;28;45815;-68
2023/08/22 04:47:04;;;;;;;20.13;12.83;;;19.40;41.80;;;;;;5042144;28;46329;-68
2023/08/22 04:49:29;;;;;;;18.43;13.17;;;19.50;42.60;;;;;;5047547;28;46419;-69
2023/08/22 04:51:55;;;;;;;16.47;12.40;;;19.60;42.40;;;;;;5041047;28;46341;-67
2023/08/22 04:54:21;;;;;;;16.10;12.83;;;19.70;42.20;;;;;;5045348;28;46837;-69
2023/08/22 04:56:46;;;;;;;21.43;12.90;;;19.80;41.10;;;;;;5046287;28;46360;-67
2023/08/22 04:59:12;;;;;;;21.17;12.70;;;19.80;41.80;;;;;;5044308;28;46544;-68
2023/08/22 05:01:38;;;;;;;18.23;12.83;;;19.90;41.70;;;;;;5052384;28;46471;-69
2023/08/22 05:04:03;;;;;;;17.97;13.03;;;20.00;41.50;;;;;;5051184;28;46613;-68
2023/08/22 05:06:29;;;;;;;18.37;11.80;;;20.20;40.00;;;;;;5049315;28;46458;-69
2023/08/22 05:08:54;;;;;;;17.33;13.20;;;20.30;40.90;;;;;;5050112;28;46729;-69
2023/08/22 05:11:20;;;;;;;19.50;12.80;;;20.40;40.60;;;;;;5048084;28;46490;-69
2023/08/22 05:13:46;;;;;;;17.03;12.10;;;20.50;40.20;;;;;;5050612;28;46636;-69
2023/08/22 05:16:11;;;;;;;18.87;11.30;;;20.70;38.60;;;;;;5047746;28;46814;-68
2023/08/22 05:18:37;;;;;;;14.73;10.73;;;20.80;39.60;;;;;;5045592;28;46863;-68
2023/08/22 05:21:04;;;;;;;15.33;12.10;;;20.90;39.10;;;;;;5046454;28;46849;-70
2023/08/22 05:23:30;;;;;;;18.07;11.13;;;21.20;38.30;;;;;;5050143;28;46552;-70
2023/08/22 05:25:56;;;;;;;16.10;10.90;;;22.60;35.40;;;;;;5055188;28;45906;-68
2023/08/22 05:28:22;;;;;;;14.30;9.70;;;22.80;36.70;;;;;;5047656;28;46752;-69
2023/08/22 05:30:47;;;;;;;14.03;9.70;;;23.50;34.60;;;;;;5048844;28;45826;-69
2023/08/22 05:33:13;;;;;;;15.40;9.43;;;24.30;32.50;;;;;;5047453;28;46435;-68
2023/08/22 05:35:38;;;;;;;20.27;9.70;;;25.50;28.30;;;;;;5048990;28;46575;-68
2023/08/22 05:38:04;;;;;;;13.77;9.53;;;25.50;28.90;;;;;;5054846;28;46595;-69
2023/08/22 05:40:30;;;;;;;12.93;9.00;;;26.00;27.20;;;;;;5049608;28;46562;-69
2023/08/22 05:42:56;;;;;;;19.83;9.40;;;26.40;26.40;;;;;;5050068;28;46494;-69
2023/08/22 05:45:21;;;;;;;17.17;9.40;;;27.00;24.50;;;;;;5049991;28;46431;-70
2023/08/22 05:47:48;;;;;;;14.67;8.90;;;27.40;21.70;;;;;;5047610;28;46703;-68
2023/08/22 05:50:13;;;;;;;18.83;9.40;;;27.80;21.50;;;;;;5046711;28;46756;-68
2023/08/22 05:52:39;;;;;;;22.40;10.03;;;28.20;19.90;;;;;;5046206;28;46511;-68
2023/08/22 05:55:06;;;;;;;14.30;9.50;;;28.50;18.60;;;;;;5048922;28;46458;-70
2023/08/22 05:57:32;;;;;;;18.13;10.90;;;28.90;16.10;;;;;;5044242;28;46388;-69
2023/08/22 05:59:59;;;;;;;23.43;11.27;;;29.20;16.60;;;;;;5047229;28;46341;-70
2023/08/22 06:02:24;;;;;;;16.13;11.10;;;29.40;15.30;;;;;;5047861;28;46579;-68
2023/08/22 06:04:50;;;;;;;23.30;12.20;;;29.80;14.20;;;;;;5046080;28;46507;-68
2023/08/22 06:07:15;;;;;;;15.80;11.50;;;30.10;11.80;;;;;;5045282;28;46876;-69
2023/08/22 06:09:41;;;;;;;16.47;12.40;;;30.40;12.50;;;;;;5047682;28;46455;-70
2023/08/22 06:12:07;;;;;;;18.50;12.37;;;30.60;11.70;;;;;;5046111;28;46530;-70
2023/08/22 06:14:33;;;;;;;16.80;11.37;;;30.90;9.40;;;;;;5054282;22;46706;-69
2023/08/22 06:16:59;;;;;;;18.30;12.33;;;31.10;9.90;;;;;;5046052;28;47274;-67
2023/08/22 06:19:25;;;;;;;25.53;12.70;;;31.40;8.80;;;;;;5046969;28;46486;-68
2023/08/22 06:21:50;;;;;;;18.30;13.50;;;31.50;8.20;;;;;;5046629;28;46798;-68
2023/08/22 06:24:16;;;;;;;17.53;12.27;;;31.80;7.10;;;;;;5047717;28;46600;-68
2023/08/22 06:26:42;;;;;;;22.53;13.70;;;31.90;5.60;;;;;;5050073;28;46819;-68
2023/08/22 06:29:08;;;;;;;20.07;13.03;;;31.90;5.90;;;;;;5047974;28;46446;-68
2023/08/22 06:31:34;;;;;;;20.03;13.23;;;31.90;5.00;;;;;;5048665;28;46353;-67
2023/08/22 06:34:00;;;;;;;18.47;13.50;;;31.10;6.70;;;;;;5049090;28;46423;-69
2023/08/22 06:36:26;;;;;;;19.77;13.47;;;29.80;8.90;;;;;;5047467;28;47147;-68
2023/08/22 06:38:52;;;;;;;20.33;13.33;;;29.50;10.40;;;;;;5046746;28;46560;-68
2023/08/22 06:41:18;;;;;;;22.57;13.67;;;29.10;11.70;;;;;;5046540;28;46462;-69
2023/08/22 06:43:44;;;;;;;23.83;12.70;;;29.20;10.60;;;;;;5047805;28;46676;-69
2023/08/22 06:46:10;;;;;;;15.03;11.83;;;30.50;6.00;;;;;;5043967;28;47441;-67
2023/08/22 06:48:35;;;;;;;24.77;14.60;;;30.70;6.60;;;;;;5047343;28;46746;-69
2023/08/22 06:51:01;;;;;;;23.53;13.20;;;30.40;7.80;;;;;;5046375;28;46496;-68
2023/08/22 06:53:26;;;;;;;46.37;14.17;;;29.60;9.80;;;;;;5046245;28;46250;-68
2023/08/22 06:55:54;;;;;;;23.43;12.53;;;28.70;11.50;;;;;;5044997;28;46453;-68
2023/08/22 06:58:20;;;;;;;20.00;13.60;;;28.70;12.60;;;;;;5048799;28;46381;-69
2023/08/22 07:00:45;;;;;;;20.80;12.90;;;28.50;13.30;;;;;;5048283;28;46512;-69
2023/08/22 07:03:11;;;;;;;24.93;11.90;;;28.40;13.70;;;;;;5050673;28;46595;-67
2023/08/22 07:05:36;;;;;;;19.00;12.07;;;28.20;13.80;;;;;;5045010;28;46943;-69
2023/08/22 07:08:02;;;;;;;17.20;11.83;;;28.20;14.70;;;;;;5045805;28;46607;-69
2023/08/22 07:10:28;;;;;;;16.97;12.53;;;28.20;14.90;;;;;;5044760;28;46526;-69
2023/08/22 07:12:54;;;;;;;19.40;12.90;;;28.10;15.30;;;;;;5046608;28;46665;-68
2023/08/22 07:15:20;;;;;;;17.47;11.73;;;27.90;16.00;;;;;;5047569;28;46486;-68
2023/08/22 07:17:45;;;;;;;19.10;11.60;;;28.00;15.60;;;;;;5045431;28;46451;-68
2023/08/22 07:20:11;;;;;;;20.80;12.13;;;28.00;16.40;;;;;;5046479;28;46542;-67
2023/08/22 07:22:37;;;;;;;17.20;12.10;;;28.00;16.50;;;;;;5044106;28;46358;-69
2023/08/22 07:25:03;;;;;;;21.50;11.33;;;28.10;15.90;;;;;;5047550;28;46676;-67
2023/08/22 07:27:28;;;;;;;15.47;9.67;;;28.20;14.80;;;;;;5044280;28;46423;-69
2023/08/22 07:29:54;;;;;;;15.10;10.50;;;28.30;15.40;;;;;;5045035;28;46414;-68
2023/08/22 07:32:20;;;;;;;15.93;11.10;;;28.50;14.80;;;;;;5048413;28;46434;-67
2023/08/22 07:34:47;;;;;;;21.03;10.20;;;28.30;14.90;;;;;;5048212;28;46503;-69
2023/08/22 07:37:13;;;;;;;15.27;10.47;;;28.40;14.30;;;;;;5046419;28;46466;-67
2023/08/22 07:39:40;;;;;;;16.27;9.63;;;28.40;14.90;;;;;;5049237;28;46697;-67
2023/08/22 07:42:05;;;;;;;14.97;9.80;;;28.60;14.40;;;;;;5045976;28;46415;-68
2023/08/22 07:44:31;;;;;;;17.53;10.07;;;28.40;14.10;;;;;;5050575;28;47119;-68
2023/08/22 07:46:57;;;;;;;11.80;9.17;;;28.40;13.70;;;;;;5045371;28;46409;-68
2023/08/22 07:49:24;;;;;;;16.63;9.63;;;28.40;14.60;;;;;;5046661;28;46531;-68
2023/08/22 07:51:50;;;;;;;13.80;8.57;;;28.30;14.50;;;;;;5044671;28;46425;-70
2023/08/22 07:54:16;;;;;;;17.90;8.90;;;28.20;14.60;;;;;;5045103;28;47369;-67
2023/08/22 07:56:42;;;;;;;15.80;8.20;;;28.30;13.90;;;;;;5046624;28;46476;-70
2023/08/22 07:59:08;;;;;;;13.73;8.67;;;28.30;14.70;;;;;;5045429;28;46716;-69
2023/08/22 08:01:34;;;;;;;15.93;9.20;;;28.60;14.50;;;;;;5045446;28;46617;-68
2023/08/22 08:04:00;;;;;;;13.20;9.13;;;28.70;13.90;;;;;;5044252;28;46459;-68
2023/08/22 08:06:25;;;;;;;20.60;8.90;;;28.80;12.70;;;;;;5048270;28;46514;-70
2023/08/22 08:08:51;;;;;;;16.10;8.80;;;28.80;13.70;;;;;;5046237;28;46466;-67
2023/08/22 08:11:17;;;;;;;13.17;9.13;;;28.80;13.50;;;;;;5045367;28;46608;-68
2023/08/22 08:13:42;;;;;;;14.50;8.00;;;28.70;13.50;;;;;;5045649;28;46097;-68
2023/08/22 08:16:08;;;;;;;15.63;9.30;;;28.60;12.90;;;;;;5046139;28;46495;-68
2023/08/22 08:18:34;;;;;;;12.87;9.87;;;28.70;13.70;;;;;;5052637;28;45793;-68
2023/08/22 08:21:00;;;;;;;16.23;9.10;;;28.80;13.70;;;;;;5046361;28;46466;-67
2023/08/22 08:23:27;;;;;;;17.63;9.10;;;28.90;13.60;;;;;;5046371;28;46107;-69
2023/08/22 08:25:52;;;;;;;16.33;10.00;;;29.30;12.50;;;;;;5045433;28;46749;-69
2023/08/22 08:28:18;;;;;;;18.23;9.10;;;29.30;13.40;;;;;;5044050;28;46595;-67
2023/08/22 08:30:44;;;;;;;12.13;8.83;;;29.40;13.00;;;;;;5044971;28;46495;-68
2023/08/22 08:33:09;;;;;;;19.50;8.60;;;29.50;12.70;;;;;;5044975;28;46435;-70
2023/08/22 08:35:35;;;;;;;12.13;9.30;;;29.50;11.90;;;;;;5054655;28;46510;-70
2023/08/22 08:38:01;;;;;;;13.60;9.00;;;29.50;12.70;;;;;;5055561;28;46717;-68
2023/08/22 08:40:33;;;;;;;15.77;7.90;;;29.60;12.50;;;;;;5048388;28;46021;-69
2023/08/22 08:42:59;;;;;;;14.93;8.70;;;29.70;12.10;;;;;;5047824;28;48598;-67
2023/08/22 08:45:28;;;;;;;16.17;10.10;;;29.90;12.00;;;;;;5046985;28;46519;-68
2023/08/22 08:47:54;;;;;;;14.50;8.57;;;30.00;11.10;;;;;;5050006;28;46773;-67
2023/08/22 08:50:20;;;;;;;13.60;7.57;;;30.00;12.10;;;;;;5049073;28;46929;-67
2023/08/22 08:52:47;;;;;;;13.60;8.73;;;30.00;11.80;;;;;;5048553;28;46481;-68
2023/08/22 08:55:13;;;;;;;18.80;9.00;;;30.10;11.90;;;;;;5047777;28;46437;-67
2023/08/22 08:57:39;;;;;;;13.40;8.53;;;30.10;10.60;;;;;;5047955;28;46435;-69
2023/08/22 09:00:06;;;;;;;18.33;9.47;;;30.20;11.60;;;;;;5048415;28;46592;-67
2023/08/22 09:02:32;;;;;;;16.30;9.50;;;30.20;11.60;;;;;;5050217;28;47100;-67
2023/08/22 09:04:57;;;;;;;20.03;9.77;;;30.10;11.90;;;;;;5049243;28;46424;-67
2023/08/22 09:07:23;;;;;;;18.30;9.03;;;30.20;11.10;;;;;;5048074;28;46410;-69
2023/08/22 09:09:49;;;;;;;21.83;9.47;;;30.40;11.80;;;;;;5049392;28;46432;-69
2023/08/22 09:12:15;;;;;;;12.43;8.30;;;30.50;11.50;;;;;;5048798;28;46769;-68
2023/08/22 09:14:45;;;;;;;17.30;10.43;;;30.60;11.50;;;;;;5049350;28;46712;-68
2023/08/22 09:17:15;;;;;;;18.47;9.43;;;30.60;10.80;;;;;;5048367;28;46467;-68
2023/08/22 09:19:41;;;;;;;16.43;9.60;;;30.60;11.30;;;;;;5047817;28;46494;-67
2023/08/22 09:22:06;;;;;;;15.00;9.63;;;30.80;12.20;;;;;;5048199;28;46746;-68
2023/08/22 09:24:33;;;;;;;17.50;9.60;;;30.70;11.60;;;;;;5049195;28;46510;-68
2023/08/22 09:27:03;;;;;;;15.20;8.63;;;30.60;10.90;;;;;;5047912;28;46489;-68
2023/08/22 09:29:30;;;;;;;13.60;8.97;;;30.70;11.80;;;;;;5050507;28;46343;-67
2023/08/22 09:32:06;;;;;;;14.67;9.07;;;30.80;11.40;;;;;;5045899;28;46488;-68
2023/08/22 09:34:33;;;;;;;14.40;8.60;;;31.00;11.20;;;;;;5048382;28;46291;-69
2023/08/22 09:36:59;;;;;;;16.80;9.90;;;31.10;10.20;;;;;;5048454;28;45909;-68
2023/08/22 09:39:25;;;;;;;13.40;9.47;;;31.10;11.20;;;;;;5048055;28;46523;-68
2023/08/22 09:41:55;;;;;;;17.27;9.50;;;31.10;10.90;;;;;;5054817;28;47015;-70
2023/08/22 09:44:25;;;;;;;17.50;8.53;;;31.10;10.90;;;;;;5050236;28;45836;-68
2023/08/22 09:46:52;;;;;;;15.17;8.50;;;31.20;9.90;;;;;;5046126;28;46931;-68
2023/08/22 09:49:19;;;;;;;14.87;9.00;;;31.10;10.70;;;;;;5049875;28;46413;-68
2023/08/22 09:51:46;;;;;;;13.70;9.10;;;31.20;10.60;;;;;;5046974;28;46417;-70
2023/08/22 09:54:13;;;;;;;11.40;8.00;;;31.10;10.80;;;;;;5048643;28;46469;-69
2023/08/22 09:56:39;;;;;;;14.60;9.40;;;31.20;9.40;;;;;;5048771;28;46930;-68
2023/08/22 09:59:06;;;;;;;21.67;9.33;;;31.40;10.10;;;;;;5048624;28;46493;-68
2023/08/22 10:01:34;;;;;;;13.07;9.17;;;31.60;9.80;;;;;;5048282;28;46229;-67
2023/08/22 10:04:04;;;;;;;15.40;8.63;;;31.60;9.60;;;;;;5049290;28;45842;-69
2023/08/22 10:06:32;;;;;;;12.50;8.20;;;31.60;8.10;;;;;;5047085;28;46642;-68
2023/08/22 10:09:00;;;;;;;14.73;8.30;;;31.60;8.80;;;;;;5048960;28;46720;-68
2023/08/22 10:11:28;;;;;;;21.23;8.60;;;31.60;9.00;;;;;;5045849;28;46490;-68
2023/08/22 10:13:53;;;;;;;12.33;7.83;;;31.50;9.10;;;;;;5047439;28;46521;-68
2023/08/22 10:16:20;;;;;;;17.20;8.77;;;31.30;6.90;;;;;;5046565;28;46546;-68
2023/08/22 10:18:45;;;;;;;11.50;8.70;;;31.20;7.90;;;;;;5046459;28;46826;-68
2023/08/22 10:21:11;;;;;;;14.73;8.40;;;31.10;8.50;;;;;;5045989;28;46460;-67
2023/08/22 10:23:52;;;;;;;12.70;8.00;;;31.20;8.60;;;;;;5046640;28;46443;-67
2023/08/22 10:26:23;;;;;;;20.50;8.60;;;31.70;7.30;;;;;;5046217;28;46412;-67
2023/08/22 10:29:18;;;;;;;14.23;8.03;;;31.70;6.20;;;;;;5046206;28;46677;-68
2023/08/22 10:32:02;;;;;;;10.60;7.87;;;31.70;7.10;;;;;;5041518;28;46446;-65
2023/08/22 10:34:40;;;;;;;20.47;8.83;;;31.60;7.00;;;;;;5046554;28;46526;-68
2023/08/22 10:37:20;;;;;;;13.43;7.80;;;31.60;6.10;;;;;;5045767;28;46359;-66
2023/08/22 10:39:52;;;;;;;13.27;7.20;;;31.80;6.30;;;;;;5047442;28;46387;-66
2023/08/22 10:42:19;;;;;;;12.53;8.17;;;31.80;9.40;;;;;;5047970;28;46422;-67
2023/08/22 10:44:49;;;;;;;14.63;8.60;;;31.80;6.20;;;;;;5045528;28;46514;-67
2023/08/22 10:47:20;;;;;;;8.47;7.53;;;31.70;6.30;;;;;;5048446;28;46305;-69
2023/08/22 10:49:53;;;;;;;8.63;6.83;;;32.10;6.90;;;;;;5047982;28;46438;-67
2023/08/22 10:52:26;;;;;;;13.90;7.30;;;32.00;6.40;;;;;;5043675;28;46591;-67
2023/08/22 10:55:00;;;;;;;11.37;6.77;;;32.10;5.90;;;;;;5045299;28;45850;-67
2023/08/22 10:57:27;;;;;;;10.33;7.80;;;31.90;5.70;;;;;;5045163;28;46556;-68
2023/08/22 10:59:59;;;;;;;12.47;6.43;;;31.90;6.30;;;;;;5048514;28;46504;-67
2023/08/22 11:02:29;;;;;;;14.63;7.73;;;32.00;6.60;;;;;;5045898;28;46403;-67
2023/08/22 11:05:00;;;;;;;16.20;8.53;;;31.90;6.30;;;;;;5047937;28;46480;-67
2023/08/22 11:07:27;;;;;;;11.77;7.30;;;31.60;7.70;;;;;;5046249;28;46727;-67
2023/08/22 11:09:54;;;;;;;16.67;7.67;;;31.80;7.20;;;;;;5045542;28;46513;-69
2023/08/22 11:12:24;;;;;;;12.67;7.73;;;31.90;7.20;;;;;;5047929;28;46454;-66
2023/08/22 11:14:52;;;;;;;10.60;6.17;;;32.20;6.30;;;;;;5047122;28;46414;-69
2023/08/22 11:17:22;;;;;;;15.23;7.63;;;32.30;4.60;;;;;;5044457;28;46439;-66
2023/08/22 11:19:49;;;;;;;14.20;7.20;;;32.30;5.80;;;;;;5052278;28;45820;-67
2023/08/22 11:22:15;;;;;;;14.80;7.80;;;32.10;4.90;;;;;;5047490;28;47284;-67
2023/08/22 11:24:42;;;;;;;16.53;7.53;;;31.90;6.30;;;;;;5046938;28;46719;-67
2023/08/22 11:27:07;;;;;;;12.30;7.70;;;32.10;6.20;;;;;;5060171;28;46846;-65
2023/08/22 11:29:49;;;;;;;18.77;6.63;;;32.40;6.00;;;;;;5048222;28;46465;-65
2023/08/22 11:32:35;;;;;;;11.20;7.00;;;32.40;5.70;;;;;;5043722;28;47157;-66
2023/08/22 11:35:06;;;;;;;13.60;7.30;;;32.40;6.60;;;;;;5050601;28;46603;-67
2023/08/22 11:37:33;;;;;;;12.70;7.80;;;32.40;5.00;;;;;;5047296;28;46397;-66
2023/08/22 11:39:59;;;;;;;13.90;7.23;;;32.40;4.90;;;;;;5047565;28;46688;-68
2023/08/22 11:42:27;;;;;;;13.90;7.50;;;32.50;4.80;;;;;;5044984;28;47096;-67
2023/08/22 11:45:02;;;;;;;15.10;7.37;;;32.60;4.20;;;;;;5062354;28;46727;-67
2023/08/22 11:47:46;;;;;;;13.70;7.60;;;32.60;4.30;;;;;;5046269;28;46530;-66
2023/08/22 11:50:27;;;;;;;11.03;6.00;;;32.70;3.80;;;;;;5049350;28;46675;-67
2023/08/22 11:52:57;;;;;;;16.83;6.77;;;32.60;4.30;;;;;;5059957;28;47062;-66
2023/08/22 11:55:27;;;;;;;10.93;5.80;;;33.00;3.20;;;;;;5049183;28;45846;-66
2023/08/22 11:58:01;;;;;;;9.73;6.00;;;33.00;2.50;;;;;;5044113;28;46746;-67
2023/08/22 12:00:27;;;;;;;7.83;5.47;;;33.00;3.50;;;;;;5048109;28;45996;-67
2023/08/22 12:02:55;;;;;;;12.90;5.87;;;33.10;3.40;;;;;;5046551;28;47164;-66
2023/08/22 12:05:32;;;;;;;12.70;6.47;;;33.00;3.30;;;;;;5041479;28;46491;-67
2023/08/22 12:08:17;;;;;;;9.80;6.47;;;33.20;2.10;;;;;;5043883;28;46276;-67
2023/08/22 12:10:48;;;;;;;7.40;5.63;;;33.40;2.80;;;;;;5049774;28;46279;-66
2023/08/22 12:13:16;;;;;;;16.07;5.60;;;33.50;2.60;;;;;;5049343;28;46961;-69
2023/08/22 12:15:42;;;;;;;11.13;5.70;;;33.50;1.40;;;;;;5047673;28;46424;-69
2023/08/22 12:18:09;;;;;;;9.27;5.57;;;33.50;1.90;;;;;;5050085;28;46582;-67
2023/08/22 12:20:38;;;;;;;14.90;6.00;;;33.40;1.40;;;;;;5049904;28;46784;-67
2023/08/22 12:23:04;;;;;;;8.07;5.37;;;33.30;1.50;;;;;;5049560;28;47757;-66
2023/08/22 12:25:29;;;;;;;8.53;5.97;;;33.40;2.70;;;;;;5052352;28;46722;-67
2023/08/22 12:27:55;;;;;;;9.03;5.60;;;33.60;1.00;;;;;;5050273;28;46526;-68
2023/08/22 12:30:21;;;;;;;10.67;6.20;;;33.90;1.20;;;;;;5049983;28;46454;-67
2023/08/22 12:32:47;;;;;;;9.43;6.40;;;33.70;1.00;;;;;;5047375;28;47186;-68
2023/08/22 12:35:13;;;;;;;14.30;6.43;;;33.70;1.00;;;;;;5047054;28;46483;-67